KBNA

Nashville International Airport

Airport
ICAO code
KBNA
Summary
ICAO Region
NAM
ICAO Territory
Location

Nashville, Tennessee,

Coordinates
36° 7' 53" N , 86° 40' 10" W
KCC
Airport GND
Jet Blast
Airport LOS
Parallel Runway Operation
Airport WX
Cumulonimbus
Metar
Observation
KBNA 071753Z 29008KT 10SM FEW065 SCT250 25/12 A3022 RMK AO2 SLP227 T02500117 10250 20122 58003
Station
Nashville, Nashville International Airport
Date/Time
2022-10-07 17:53:00
Wind direction
290°
Wind speed
08 kts
Lowest cloud amount
few clouds
Temperature
25°C
Dew point
11.7°C
Humidity
43%
Weather condition
n/a

Description

Nashville International Airport is a public and military (ANG) use airport in the southeastern section of Nashville, Tennessee.

Climatology

Humid “subtropical” climate (Köppen climate classification Cfa) - characterized by hot, humid summers and cool winters. Significant amounts of precipitation occur in all seasons in most areas. Winter rainfall (and sometimes snowfall) is associated with large storms that the westerlies steer from west to east. Most summer rainfall occurs during thunderstorms and occasional tropical storms (hurricanes).

Airport map

Aerial View

Airport accidents

SKYbrary Partners:

Safety knowledge contributed by: